sensor_id;sensor_type;location;lat;lon;timestamp;P1;durP1;ratioP1;P2;durP2;ratioP2
76786;SDS011;65739;51.482;5.702;2023-02-11T00:01:32;21.13;;;10.90;;
76786;SDS011;65739;51.482;5.702;2023-02-11T00:03:59;25.48;;;10.80;;
76786;SDS011;65739;51.482;5.702;2023-02-11T00:06:27;23.33;;;11.65;;
76786;SDS011;65739;51.482;5.702;2023-02-11T00:08:53;27.13;;;11.10;;
76786;SDS011;65739;51.482;5.702;2023-02-11T00:11:20;27.02;;;10.75;;
76786;SDS011;65739;51.482;5.702;2023-02-11T00:13:47;20.55;;;11.88;;
76786;SDS011;65739;51.482;5.702;2023-02-11T00:16:14;25.58;;;11.68;;
76786;SDS011;65739;51.482;5.702;2023-02-11T00:18:44;27.42;;;11.02;;
76786;SDS011;65739;51.482;5.702;2023-02-11T00:21:11;25.48;;;11.20;;
76786;SDS011;65739;51.482;5.702;2023-02-11T00:23:38;20.15;;;10.60;;
76786;SDS011;65739;51.482;5.702;2023-02-11T00:26:10;26.73;;;10.07;;
76786;SDS011;65739;51.482;5.702;2023-02-11T00:28:37;26.58;;;9.43;;
76786;SDS011;65739;51.482;5.702;2023-02-11T00:31:03;19.27;;;10.32;;
76786;SDS011;65739;51.482;5.702;2023-02-11T00:33:29;18.55;;;9.68;;
76786;SDS011;65739;51.482;5.702;2023-02-11T00:35:54;20.85;;;10.40;;
76786;SDS011;65739;51.482;5.702;2023-02-11T00:38:20;23.25;;;10.02;;
76786;SDS011;65739;51.482;5.702;2023-02-11T00:40:46;19.58;;;10.85;;
76786;SDS011;65739;51.482;5.702;2023-02-11T00:43:12;23.20;;;10.32;;
76786;SDS011;65739;51.482;5.702;2023-02-11T00:45:38;21.27;;;9.57;;
76786;SDS011;65739;51.482;5.702;2023-02-11T00:48:03;22.23;;;9.73;;
76786;SDS011;65739;51.482;5.702;2023-02-11T00:50:29;19.05;;;9.88;;
76786;SDS011;65739;51.482;5.702;2023-02-11T00:52:55;23.10;;;9.80;;
76786;SDS011;65739;51.482;5.702;2023-02-11T00:55:21;20.00;;;9.93;;
76786;SDS011;65739;51.482;5.702;2023-02-11T00:57:46;18.02;;;10.15;;
76786;SDS011;65739;51.482;5.702;2023-02-11T01:00:12;19.90;;;9.48;;
76786;SDS011;65739;51.482;5.702;2023-02-11T01:02:38;17.20;;;8.95;;
76786;SDS011;65739;51.482;5.702;2023-02-11T01:05:04;16.40;;;8.65;;
76786;SDS011;65739;51.482;5.702;2023-02-11T01:07:30;18.70;;;8.70;;
76786;SDS011;65739;51.482;5.702;2023-02-11T01:09:56;17.65;;;8.70;;
76786;SDS011;65739;51.482;5.702;2023-02-11T01:12:25;18.85;;;8.88;;
76786;SDS011;65739;51.482;5.702;2023-02-11T01:14:51;18.98;;;8.50;;
76786;SDS011;65739;51.482;5.702;2023-02-11T01:17:16;20.17;;;8.90;;
76786;SDS011;65739;51.482;5.702;2023-02-11T01:19:42;17.88;;;8.68;;
76786;SDS011;65739;51.482;5.702;2023-02-11T01:22:08;22.00;;;9.27;;
76786;SDS011;65739;51.482;5.702;2023-02-11T01:24:33;19.05;;;9.20;;
76786;SDS011;65739;51.482;5.702;2023-02-11T01:26:59;22.90;;;8.88;;
76786;SDS011;65739;51.482;5.702;2023-02-11T01:29:25;20.65;;;8.50;;
76786;SDS011;65739;51.482;5.702;2023-02-11T01:31:50;22.15;;;9.15;;
76786;SDS011;65739;51.482;5.702;2023-02-11T01:34:16;20.63;;;9.07;;
76786;SDS011;65739;51.482;5.702;2023-02-11T01:36:41;18.30;;;8.43;;
76786;SDS011;65739;51.482;5.702;2023-02-11T01:39:07;17.60;;;8.80;;
76786;SDS011;65739;51.482;5.702;2023-02-11T01:41:33;19.23;;;8.48;;
76786;SDS011;65739;51.482;5.702;2023-02-11T01:46:46;20.70;;;8.75;;
76786;SDS011;65739;51.482;5.702;2023-02-11T01:49:17;18.50;;;8.20;;
76786;SDS011;65739;51.482;5.702;2023-02-11T01:51:59;16.17;;;8.13;;
76786;SDS011;65739;51.482;5.702;2023-02-11T01:54:29;20.88;;;9.13;;
76786;SDS011;65739;51.482;5.702;2023-02-11T01:57:21;15.05;;;8.15;;
76786;SDS011;65739;51.482;5.702;2023-02-11T02:08:49;18.45;;;8.00;;
76786;SDS011;65739;51.482;5.702;2023-02-11T02:11:21;19.52;;;8.57;;
76786;SDS011;65739;51.482;5.702;2023-02-11T02:13:47;19.38;;;8.48;;
76786;SDS011;65739;51.482;5.702;2023-02-11T02:16:14;23.80;;;9.27;;
76786;SDS011;65739;51.482;5.702;2023-02-11T02:21:37;16.17;;;7.75;;
76786;SDS011;65739;51.482;5.702;2023-02-11T02:35:39;20.63;;;7.15;;
76786;SDS011;65739;51.482;5.702;2023-02-11T02:43:54;20.63;;;7.68;;
76786;SDS011;65739;51.482;5.702;2023-02-11T02:46:24;18.00;;;7.55;;
76786;SDS011;65739;51.482;5.702;2023-02-11T02:48:52;17.20;;;7.32;;
76786;SDS011;65739;51.482;5.702;2023-02-11T02:56:38;23.17;;;7.35;;
76786;SDS011;65739;51.482;5.702;2023-02-11T03:10:56;16.55;;;7.88;;
76786;SDS011;65739;51.482;5.702;2023-02-11T03:13:25;18.10;;;7.68;;
76786;SDS011;65739;51.482;5.702;2023-02-11T03:15:56;22.15;;;7.13;;
76786;SDS011;65739;51.482;5.702;2023-02-11T03:18:25;19.52;;;7.30;;
76786;SDS011;65739;51.482;5.702;2023-02-11T03:20:53;17.50;;;7.20;;
76786;SDS011;65739;51.482;5.702;2023-02-11T03:23:22;15.52;;;7.05;;
76786;SDS011;65739;51.482;5.702;2023-02-11T03:26:00;16.25;;;7.57;;
76786;SDS011;65739;51.482;5.702;2023-02-11T03:28:41;29.73;;;8.23;;
76786;SDS011;65739;51.482;5.702;2023-02-11T03:31:21;11.88;;;6.25;;
76786;SDS011;65739;51.482;5.702;2023-02-11T03:34:09;13.00;;;7.25;;
76786;SDS011;65739;51.482;5.702;2023-02-11T03:36:47;15.00;;;6.80;;
76786;SDS011;65739;51.482;5.702;2023-02-11T03:41:49;12.48;;;6.00;;
76786;SDS011;65739;51.482;5.702;2023-02-11T03:44:19;11.60;;;6.68;;
76786;SDS011;65739;51.482;5.702;2023-02-11T03:49:19;17.65;;;7.28;;
76786;SDS011;65739;51.482;5.702;2023-02-11T03:51:47;23.88;;;7.53;;
76786;SDS011;65739;51.482;5.702;2023-02-11T03:54:20;18.40;;;6.32;;
76786;SDS011;65739;51.482;5.702;2023-02-11T03:56:52;18.00;;;7.30;;
76786;SDS011;65739;51.482;5.702;2023-02-11T03:59:20;16.03;;;7.23;;
76786;SDS011;65739;51.482;5.702;2023-02-11T04:01:46;18.05;;;7.57;;
76786;SDS011;65739;51.482;5.702;2023-02-11T04:04:12;18.40;;;7.22;;
76786;SDS011;65739;51.482;5.702;2023-02-11T04:06:38;18.95;;;6.68;;
76786;SDS011;65739;51.482;5.702;2023-02-11T04:09:04;17.45;;;7.40;;
76786;SDS011;65739;51.482;5.702;2023-02-11T04:11:30;16.50;;;7.35;;
76786;SDS011;65739;51.482;5.702;2023-02-11T04:13:55;16.42;;;7.03;;
76786;SDS011;65739;51.482;5.702;2023-02-11T04:16:21;20.45;;;6.80;;
76786;SDS011;65739;51.482;5.702;2023-02-11T04:18:46;18.55;;;7.10;;
76786;SDS011;65739;51.482;5.702;2023-02-11T04:21:12;14.75;;;7.00;;
76786;SDS011;65739;51.482;5.702;2023-02-11T04:23:38;15.88;;;7.45;;
76786;SDS011;65739;51.482;5.702;2023-02-11T04:26:04;18.77;;;8.18;;
76786;SDS011;65739;51.482;5.702;2023-02-11T04:28:29;18.67;;;7.50;;
76786;SDS011;65739;51.482;5.702;2023-02-11T04:30:55;22.15;;;7.90;;
76786;SDS011;65739;51.482;5.702;2023-02-11T04:33:21;18.95;;;8.68;;
76786;SDS011;65739;51.482;5.702;2023-02-11T04:35:47;17.63;;;7.97;;
76786;SDS011;65739;51.482;5.702;2023-02-11T04:38:13;23.20;;;8.20;;
76786;SDS011;65739;51.482;5.702;2023-02-11T04:40:39;22.30;;;7.95;;
76786;SDS011;65739;51.482;5.702;2023-02-11T04:43:05;12.07;;;7.65;;
76786;SDS011;65739;51.482;5.702;2023-02-11T04:45:31;21.27;;;8.57;;
76786;SDS011;65739;51.482;5.702;2023-02-11T04:47:57;18.23;;;8.23;;
76786;SDS011;65739;51.482;5.702;2023-02-11T04:50:23;19.23;;;8.30;;
76786;SDS011;65739;51.482;5.702;2023-02-11T04:52:48;12.82;;;7.38;;
76786;SDS011;65739;51.482;5.702;2023-02-11T04:55:19;21.88;;;8.38;;
76786;SDS011;65739;51.482;5.702;2023-02-11T04:57:56;21.60;;;8.32;;
76786;SDS011;65739;51.482;5.702;2023-02-11T05:00:22;15.55;;;7.20;;
76786;SDS011;65739;51.482;5.702;2023-02-11T05:02:51;21.50;;;8.30;;
76786;SDS011;65739;51.482;5.702;2023-02-11T05:05:20;16.50;;;8.05;;
76786;SDS011;65739;51.482;5.702;2023-02-11T05:07:48;22.80;;;8.55;;
76786;SDS011;65739;51.482;5.702;2023-02-11T05:10:14;23.10;;;8.65;;
76786;SDS011;65739;51.482;5.702;2023-02-11T05:12:40;18.63;;;8.82;;
76786;SDS011;65739;51.482;5.702;2023-02-11T05:15:06;20.42;;;8.98;;
76786;SDS011;65739;51.482;5.702;2023-02-11T05:17:31;26.73;;;8.32;;
76786;SDS011;65739;51.482;5.702;2023-02-11T05:19:57;20.17;;;8.25;;
76786;SDS011;65739;51.482;5.702;2023-02-11T05:22:23;16.75;;;8.27;;
76786;SDS011;65739;51.482;5.702;2023-02-11T05:24:48;18.58;;;8.85;;
76786;SDS011;65739;51.482;5.702;2023-02-11T05:27:14;16.20;;;8.07;;
76786;SDS011;65739;51.482;5.702;2023-02-11T05:29:40;18.35;;;8.85;;
76786;SDS011;65739;51.482;5.702;2023-02-11T05:32:06;24.38;;;8.82;;
76786;SDS011;65739;51.482;5.702;2023-02-11T05:34:34;22.25;;;8.82;;
76786;SDS011;65739;51.482;5.702;2023-02-11T05:37:00;15.43;;;8.15;;
76786;SDS011;65739;51.482;5.702;2023-02-11T05:39:26;25.80;;;9.48;;
76786;SDS011;65739;51.482;5.702;2023-02-11T05:41:51;24.88;;;9.50;;
76786;SDS011;65739;51.482;5.702;2023-02-11T05:44:23;19.15;;;9.43;;
76786;SDS011;65739;51.482;5.702;2023-02-11T05:46:59;20.95;;;9.40;;
76786;SDS011;65739;51.482;5.702;2023-02-11T05:49:25;19.20;;;9.57;;
76786;SDS011;65739;51.482;5.702;2023-02-11T05:51:50;18.20;;;9.70;;
76786;SDS011;65739;51.482;5.702;2023-02-11T05:54:16;22.38;;;10.07;;
76786;SDS011;65739;51.482;5.702;2023-02-11T05:56:42;16.92;;;9.73;;
76786;SDS011;65739;51.482;5.702;2023-02-11T05:59:07;23.75;;;9.90;;
76786;SDS011;65739;51.482;5.702;2023-02-11T06:01:33;14.88;;;9.48;;
76786;SDS011;65739;51.482;5.702;2023-02-11T06:03:59;28.95;;;10.82;;
76786;SDS011;65739;51.482;5.702;2023-02-11T06:06:25;22.60;;;10.93;;
76786;SDS011;65739;51.482;5.702;2023-02-11T06:08:51;21.63;;;10.50;;
76786;SDS011;65739;51.482;5.702;2023-02-11T06:11:17;22.95;;;10.20;;
76786;SDS011;65739;51.482;5.702;2023-02-11T06:13:44;26.58;;;11.63;;
76786;SDS011;65739;51.482;5.702;2023-02-11T06:16:10;27.52;;;11.30;;
76786;SDS011;65739;51.482;5.702;2023-02-11T06:18:35;26.90;;;11.18;;
76786;SDS011;65739;51.482;5.702;2023-02-11T06:21:04;24.27;;;10.23;;
76786;SDS011;65739;51.482;5.702;2023-02-11T06:23:31;23.67;;;11.47;;
76786;SDS011;65739;51.482;5.702;2023-02-11T06:26:00;23.67;;;11.52;;
76786;SDS011;65739;51.482;5.702;2023-02-11T06:28:29;24.60;;;11.38;;
76786;SDS011;65739;51.482;5.702;2023-02-11T06:30:56;23.85;;;11.43;;
76786;SDS011;65739;51.482;5.702;2023-02-11T06:33:22;26.65;;;11.73;;
76786;SDS011;65739;51.482;5.702;2023-02-11T06:35:47;23.30;;;12.02;;
76786;SDS011;65739;51.482;5.702;2023-02-11T06:38:13;25.67;;;12.20;;
76786;SDS011;65739;51.482;5.702;2023-02-11T06:40:45;25.33;;;12.13;;
76786;SDS011;65739;51.482;5.702;2023-02-11T06:43:12;33.08;;;13.70;;
76786;SDS011;65739;51.482;5.702;2023-02-11T06:45:37;34.08;;;14.05;;
76786;SDS011;65739;51.482;5.702;2023-02-11T06:48:03;33.25;;;13.68;;
76786;SDS011;65739;51.482;5.702;2023-02-11T06:50:32;32.10;;;14.55;;
76786;SDS011;65739;51.482;5.702;2023-02-11T06:52:58;37.00;;;14.68;;
76786;SDS011;65739;51.482;5.702;2023-02-11T06:55:24;32.45;;;15.27;;
76786;SDS011;65739;51.482;5.702;2023-02-11T06:57:52;36.83;;;16.00;;
76786;SDS011;65739;51.482;5.702;2023-02-11T07:00:26;32.58;;;14.48;;
76786;SDS011;65739;51.482;5.702;2023-02-11T07:03:00;40.25;;;15.80;;
76786;SDS011;65739;51.482;5.702;2023-02-11T07:05:26;32.30;;;15.70;;
76786;SDS011;65739;51.482;5.702;2023-02-11T07:07:51;32.97;;;15.65;;
76786;SDS011;65739;51.482;5.702;2023-02-11T07:10:17;45.65;;;16.55;;
76786;SDS011;65739;51.482;5.702;2023-02-11T07:12:43;39.22;;;16.67;;
76786;SDS011;65739;51.482;5.702;2023-02-11T07:15:08;41.25;;;18.60;;
76786;SDS011;65739;51.482;5.702;2023-02-11T07:17:34;41.40;;;17.90;;
76786;SDS011;65739;51.482;5.702;2023-02-11T07:20:09;39.55;;;18.33;;
76786;SDS011;65739;51.482;5.702;2023-02-11T07:22:36;38.85;;;18.23;;
76786;SDS011;65739;51.482;5.702;2023-02-11T07:25:02;46.95;;;19.05;;
76786;SDS011;65739;51.482;5.702;2023-02-11T07:27:28;39.85;;;18.70;;
76786;SDS011;65739;51.482;5.702;2023-02-11T07:29:53;44.08;;;19.05;;
76786;SDS011;65739;51.482;5.702;2023-02-11T07:32:19;51.85;;;20.42;;
76786;SDS011;65739;51.482;5.702;2023-02-11T07:34:45;45.83;;;19.35;;
76786;SDS011;65739;51.482;5.702;2023-02-11T07:37:15;47.65;;;20.40;;
76786;SDS011;65739;51.482;5.702;2023-02-11T07:39:41;49.17;;;20.55;;
76786;SDS011;65739;51.482;5.702;2023-02-11T07:42:07;45.75;;;20.60;;
76786;SDS011;65739;51.482;5.702;2023-02-11T07:44:32;49.53;;;20.33;;
76786;SDS011;65739;51.482;5.702;2023-02-11T07:46:59;50.08;;;19.83;;
76786;SDS011;65739;51.482;5.702;2023-02-11T07:49:24;51.38;;;21.48;;
76786;SDS011;65739;51.482;5.702;2023-02-11T07:51:50;40.85;;;20.73;;
76786;SDS011;65739;51.482;5.702;2023-02-11T07:54:16;51.58;;;20.90;;
76786;SDS011;65739;51.482;5.702;2023-02-11T07:56:42;51.40;;;22.48;;
76786;SDS011;65739;51.482;5.702;2023-02-11T07:59:07;56.40;;;23.38;;
76786;SDS011;65739;51.482;5.702;2023-02-11T08:01:39;55.63;;;23.13;;
76786;SDS011;65739;51.482;5.702;2023-02-11T08:04:05;56.90;;;23.65;;
76786;SDS011;65739;51.482;5.702;2023-02-11T08:09:52;55.60;;;23.83;;
76786;SDS011;65739;51.482;5.702;2023-02-11T08:12:19;56.72;;;24.00;;
76786;SDS011;65739;51.482;5.702;2023-02-11T08:14:45;57.85;;;24.20;;
76786;SDS011;65739;51.482;5.702;2023-02-11T08:17:16;57.47;;;24.45;;
76786;SDS011;65739;51.482;5.702;2023-02-11T08:19:41;59.70;;;25.35;;
76786;SDS011;65739;51.482;5.702;2023-02-11T08:22:07;60.97;;;24.73;;
76786;SDS011;65739;51.482;5.702;2023-02-11T08:24:33;59.65;;;25.00;;
76786;SDS011;65739;51.482;5.702;2023-02-11T08:26:58;61.15;;;24.10;;
76786;SDS011;65739;51.482;5.702;2023-02-11T08:29:24;57.67;;;24.02;;
76786;SDS011;65739;51.482;5.702;2023-02-11T08:31:49;58.13;;;26.25;;
76786;SDS011;65739;51.482;5.702;2023-02-11T08:34:15;55.13;;;24.58;;
76786;SDS011;65739;51.482;5.702;2023-02-11T08:36:43;59.00;;;25.27;;
76786;SDS011;65739;51.482;5.702;2023-02-11T08:39:17;59.38;;;25.45;;
76786;SDS011;65739;51.482;5.702;2023-02-11T08:41:44;65.15;;;26.15;;
76786;SDS011;65739;51.482;5.702;2023-02-11T08:44:12;59.63;;;27.42;;
76786;SDS011;65739;51.482;5.702;2023-02-11T08:46:38;66.18;;;27.65;;
76786;SDS011;65739;51.482;5.702;2023-02-11T08:49:04;67.78;;;26.75;;
76786;SDS011;65739;51.482;5.702;2023-02-11T08:51:29;63.38;;;26.58;;
76786;SDS011;65739;51.482;5.702;2023-02-11T08:53:55;64.30;;;27.98;;
76786;SDS011;65739;51.482;5.702;2023-02-11T08:56:24;66.10;;;27.10;;
76786;SDS011;65739;51.482;5.702;2023-02-11T08:58:50;64.95;;;27.88;;
76786;SDS011;65739;51.482;5.702;2023-02-11T09:01:18;66.53;;;28.40;;
76786;SDS011;65739;51.482;5.702;2023-02-11T09:03:48;63.95;;;28.27;;
76786;SDS011;65739;51.482;5.702;2023-02-11T09:06:14;66.70;;;28.88;;
76786;SDS011;65739;51.482;5.702;2023-02-11T09:08:43;69.40;;;27.90;;
76786;SDS011;65739;51.482;5.702;2023-02-11T09:11:10;62.90;;;28.80;;
76786;SDS011;65739;51.482;5.702;2023-02-11T09:13:36;73.85;;;27.63;;
76786;SDS011;65739;51.482;5.702;2023-02-11T09:16:04;65.10;;;29.45;;
76786;SDS011;65739;51.482;5.702;2023-02-11T09:18:31;70.57;;;29.55;;
76786;SDS011;65739;51.482;5.702;2023-02-11T09:21:07;69.80;;;28.67;;
76786;SDS011;65739;51.482;5.702;2023-02-11T09:23:34;69.05;;;29.10;;
76786;SDS011;65739;51.482;5.702;2023-02-11T09:26:22;62.30;;;29.38;;
76786;SDS011;65739;51.482;5.702;2023-02-11T09:28:49;68.75;;;30.80;;
76786;SDS011;65739;51.482;5.702;2023-02-11T09:31:16;66.07;;;28.23;;
76786;SDS011;65739;51.482;5.702;2023-02-11T09:33:44;70.28;;;30.13;;
76786;SDS011;65739;51.482;5.702;2023-02-11T09:36:12;67.20;;;29.95;;
76786;SDS011;65739;51.482;5.702;2023-02-11T09:38:47;63.75;;;28.52;;
76786;SDS011;65739;51.482;5.702;2023-02-11T09:43:48;73.78;;;29.90;;
76786;SDS011;65739;51.482;5.702;2023-02-11T09:46:20;69.50;;;29.55;;
76786;SDS011;65739;51.482;5.702;2023-02-11T09:48:49;69.97;;;28.90;;
76786;SDS011;65739;51.482;5.702;2023-02-11T09:51:27;64.47;;;29.00;;
76786;SDS011;65739;51.482;5.702;2023-02-11T09:54:06;73.97;;;28.45;;
76786;SDS011;65739;51.482;5.702;2023-02-11T09:56:44;65.68;;;29.35;;
76786;SDS011;65739;51.482;5.702;2023-02-11T09:59:14;68.80;;;29.80;;
76786;SDS011;65739;51.482;5.702;2023-02-11T10:02:17;68.57;;;28.88;;
76786;SDS011;65739;51.482;5.702;2023-02-11T10:05:07;65.85;;;29.50;;
76786;SDS011;65739;51.482;5.702;2023-02-11T10:16:31;66.68;;;29.05;;
76786;SDS011;65739;51.482;5.702;2023-02-11T10:21:55;71.40;;;29.85;;
76786;SDS011;65739;51.482;5.702;2023-02-11T10:24:34;64.47;;;29.83;;
76786;SDS011;65739;51.482;5.702;2023-02-11T10:27:00;66.88;;;29.40;;
76786;SDS011;65739;51.482;5.702;2023-02-11T10:29:40;72.25;;;30.33;;
76786;SDS011;65739;51.482;5.702;2023-02-11T10:32:25;71.25;;;30.50;;
76786;SDS011;65739;51.482;5.702;2023-02-11T10:34:57;62.22;;;29.17;;
76786;SDS011;65739;51.482;5.702;2023-02-11T10:37:27;77.35;;;29.67;;
76786;SDS011;65739;51.482;5.702;2023-02-11T10:39:54;73.80;;;31.10;;
76786;SDS011;65739;51.482;5.702;2023-02-11T10:42:19;71.38;;;31.02;;
76786;SDS011;65739;51.482;5.702;2023-02-11T10:44:53;69.90;;;29.20;;
76786;SDS011;65739;51.482;5.702;2023-02-11T10:47:23;66.88;;;29.27;;
76786;SDS011;65739;51.482;5.702;2023-02-11T10:49:51;67.78;;;29.83;;
76786;SDS011;65739;51.482;5.702;2023-02-11T10:55:01;67.78;;;30.35;;
76786;SDS011;65739;51.482;5.702;2023-02-11T10:57:37;68.35;;;30.90;;
76786;SDS011;65739;51.482;5.702;2023-02-11T11:00:22;64.97;;;30.20;;
76786;SDS011;65739;51.482;5.702;2023-02-11T11:03:03;69.15;;;29.75;;
76786;SDS011;65739;51.482;5.702;2023-02-11T11:05:45;74.30;;;30.52;;
76786;SDS011;65739;51.482;5.702;2023-02-11T11:08:14;70.82;;;30.88;;
76786;SDS011;65739;51.482;5.702;2023-02-11T11:10:42;68.95;;;30.10;;
76786;SDS011;65739;51.482;5.702;2023-02-11T11:13:23;65.45;;;30.50;;
76786;SDS011;65739;51.482;5.702;2023-02-11T11:18:33;67.20;;;29.85;;
76786;SDS011;65739;51.482;5.702;2023-02-11T11:20:59;65.47;;;31.02;;
76786;SDS011;65739;51.482;5.702;2023-02-11T11:23:28;67.80;;;31.17;;
76786;SDS011;65739;51.482;5.702;2023-02-11T11:28:27;71.57;;;31.40;;
76786;SDS011;65739;51.482;5.702;2023-02-11T11:30:54;69.28;;;32.38;;
76786;SDS011;65739;51.482;5.702;2023-02-11T11:33:24;70.18;;;31.42;;
76786;SDS011;65739;51.482;5.702;2023-02-11T11:38:23;71.07;;;31.13;;
76786;SDS011;65739;51.482;5.702;2023-02-11T11:43:38;70.80;;;30.25;;
76786;SDS011;65739;51.482;5.702;2023-02-11T11:46:03;68.85;;;29.52;;
76786;SDS011;65739;51.482;5.702;2023-02-11T11:48:33;72.35;;;29.92;;
76786;SDS011;65739;51.482;5.702;2023-02-11T11:51:07;64.88;;;30.80;;
76786;SDS011;65739;51.482;5.702;2023-02-11T11:53:36;62.20;;;29.23;;
76786;SDS011;65739;51.482;5.702;2023-02-11T11:58:43;64.47;;;30.33;;
76786;SDS011;65739;51.482;5.702;2023-02-11T12:21:36;61.70;;;28.45;;
76786;SDS011;65739;51.482;5.702;2023-02-11T12:27:10;58.72;;;28.77;;
76786;SDS011;65739;51.482;5.702;2023-02-11T12:32:31;58.83;;;28.17;;
76786;SDS011;65739;51.482;5.702;2023-02-11T12:40:44;48.53;;;26.38;;
76786;SDS011;65739;51.482;5.702;2023-02-11T12:43:26;58.08;;;25.92;;
76786;SDS011;65739;51.482;5.702;2023-02-11T12:48:32;47.15;;;25.35;;
76786;SDS011;65739;51.482;5.702;2023-02-11T12:51:04;49.08;;;24.38;;
76786;SDS011;65739;51.482;5.702;2023-02-11T12:56:13;50.80;;;24.02;;
76786;SDS011;65739;51.482;5.702;2023-02-11T12:58:53;43.42;;;25.20;;
76786;SDS011;65739;51.482;5.702;2023-02-11T13:01:22;41.55;;;23.77;;
76786;SDS011;65739;51.482;5.702;2023-02-11T13:04:09;45.90;;;25.07;;
76786;SDS011;65739;51.482;5.702;2023-02-11T13:06:38;48.17;;;24.65;;
76786;SDS011;65739;51.482;5.702;2023-02-11T13:09:10;46.78;;;23.55;;
76786;SDS011;65739;51.482;5.702;2023-02-11T13:11:43;49.47;;;24.73;;
76786;SDS011;65739;51.482;5.702;2023-02-11T13:14:23;48.13;;;25.33;;
76786;SDS011;65739;51.482;5.702;2023-02-11T13:16:59;45.58;;;24.73;;
76786;SDS011;65739;51.482;5.702;2023-02-11T13:37:59;64.38;;;28.08;;
76786;SDS011;65739;51.482;5.702;2023-02-11T13:40:31;52.70;;;27.58;;
76786;SDS011;65739;51.482;5.702;2023-02-11T13:43:02;51.70;;;29.17;;
76786;SDS011;65739;51.482;5.702;2023-02-11T13:45:42;62.25;;;28.98;;
76786;SDS011;65739;51.482;5.702;2023-02-11T13:48:29;50.67;;;28.95;;
76786;SDS011;65739;51.482;5.702;2023-02-11T13:51:01;51.92;;;28.67;;
76786;SDS011;65739;51.482;5.702;2023-02-11T13:53:29;54.42;;;27.95;;
76786;SDS011;65739;51.482;5.702;2023-02-11T13:59:42;57.65;;;27.75;;
76786;SDS011;65739;51.482;5.702;2023-02-11T14:10:53;51.30;;;27.23;;
76786;SDS011;65739;51.482;5.702;2023-02-11T14:13:30;58.92;;;29.25;;
76786;SDS011;65739;51.482;5.702;2023-02-11T14:21:31;47.75;;;27.20;;
76786;SDS011;65739;51.482;5.702;2023-02-11T14:26:45;53.67;;;27.85;;
76786;SDS011;65739;51.482;5.702;2023-02-11T14:29:17;59.45;;;30.60;;
76786;SDS011;65739;51.482;5.702;2023-02-11T14:35:07;55.03;;;29.45;;
76786;SDS011;65739;51.482;5.702;2023-02-11T14:37:42;58.72;;;31.80;;
76786;SDS011;65739;51.482;5.702;2023-02-11T14:43:24;63.15;;;31.80;;
76786;SDS011;65739;51.482;5.702;2023-02-11T14:45:54;50.70;;;29.52;;
76786;SDS011;65739;51.482;5.702;2023-02-11T14:48:26;51.92;;;29.70;;
76786;SDS011;65739;51.482;5.702;2023-02-11T14:50:59;55.15;;;29.23;;
76786;SDS011;65739;51.482;5.702;2023-02-11T14:53:29;51.20;;;29.38;;
76786;SDS011;65739;51.482;5.702;2023-02-11T14:55:57;54.25;;;28.80;;
76786;SDS011;65739;51.482;5.702;2023-02-11T15:00:59;52.63;;;28.38;;
76786;SDS011;65739;51.482;5.702;2023-02-11T15:03:39;56.80;;;30.33;;
76786;SDS011;65739;51.482;5.702;2023-02-11T15:06:15;57.28;;;31.40;;
76786;SDS011;65739;51.482;5.702;2023-02-11T15:08:44;52.40;;;32.03;;
76786;SDS011;65739;51.482;5.702;2023-02-11T15:11:14;49.53;;;28.57;;
76786;SDS011;65739;51.482;5.702;2023-02-11T15:13:43;55.33;;;30.88;;
76786;SDS011;65739;51.482;5.702;2023-02-11T15:16:24;51.10;;;29.02;;
76786;SDS011;65739;51.482;5.702;2023-02-11T15:18:53;54.70;;;30.60;;
76786;SDS011;65739;51.482;5.702;2023-02-11T15:21:27;58.35;;;32.00;;
76786;SDS011;65739;51.482;5.702;2023-02-11T15:24:05;47.42;;;26.63;;
76786;SDS011;65739;51.482;5.702;2023-02-11T15:26:54;55.15;;;29.98;;
76786;SDS011;65739;51.482;5.702;2023-02-11T15:29:32;52.60;;;29.33;;
76786;SDS011;65739;51.482;5.702;2023-02-11T15:32:20;62.03;;;30.63;;
76786;SDS011;65739;51.482;5.702;2023-02-11T15:34:48;56.17;;;29.83;;
76786;SDS011;65739;51.482;5.702;2023-02-11T15:39:45;55.58;;;30.77;;
76786;SDS011;65739;51.482;5.702;2023-02-11T15:42:27;59.05;;;29.80;;
76786;SDS011;65739;51.482;5.702;2023-02-11T15:47:52;58.53;;;29.77;;
76786;SDS011;65739;51.482;5.702;2023-02-11T15:50:31;56.85;;;30.95;;
76786;SDS011;65739;51.482;5.702;2023-02-11T15:53:02;59.25;;;31.65;;
76786;SDS011;65739;51.482;5.702;2023-02-11T15:55:50;58.13;;;30.55;;
76786;SDS011;65739;51.482;5.702;2023-02-11T15:58:19;61.08;;;30.77;;
76786;SDS011;65739;51.482;5.702;2023-02-11T16:00:46;64.20;;;32.92;;
76786;SDS011;65739;51.482;5.702;2023-02-11T16:03:21;62.72;;;35.08;;
76786;SDS011;65739;51.482;5.702;2023-02-11T16:05:48;58.92;;;32.65;;
76786;SDS011;65739;51.482;5.702;2023-02-11T16:08:26;60.10;;;32.53;;
76786;SDS011;65739;51.482;5.702;2023-02-11T16:11:00;63.00;;;36.35;;
76786;SDS011;65739;51.482;5.702;2023-02-11T16:13:32;59.28;;;34.92;;
76786;SDS011;65739;51.482;5.702;2023-02-11T16:16:26;63.30;;;33.65;;
76786;SDS011;65739;51.482;5.702;2023-02-11T16:18:56;58.70;;;33.47;;
76786;SDS011;65739;51.482;5.702;2023-02-11T16:21:30;61.53;;;34.97;;
76786;SDS011;65739;51.482;5.702;2023-02-11T16:24:16;55.55;;;33.40;;
76786;SDS011;65739;51.482;5.702;2023-02-11T16:26:52;63.05;;;32.03;;
76786;SDS011;65739;51.482;5.702;2023-02-11T16:29:25;53.38;;;31.50;;
76786;SDS011;65739;51.482;5.702;2023-02-11T16:31:53;63.38;;;35.88;;
76786;SDS011;65739;51.482;5.702;2023-02-11T16:34:31;55.67;;;31.08;;
76786;SDS011;65739;51.482;5.702;2023-02-11T16:36:56;57.55;;;30.45;;
76786;SDS011;65739;51.482;5.702;2023-02-11T16:39:22;68.18;;;36.50;;
76786;SDS011;65739;51.482;5.702;2023-02-11T16:41:48;65.65;;;35.42;;
76786;SDS011;65739;51.482;5.702;2023-02-11T16:44:15;52.53;;;30.13;;
76786;SDS011;65739;51.482;5.702;2023-02-11T16:46:41;57.10;;;32.45;;
76786;SDS011;65739;51.482;5.702;2023-02-11T16:49:08;59.63;;;33.80;;
76786;SDS011;65739;51.482;5.702;2023-02-11T16:51:38;70.13;;;37.13;;
76786;SDS011;65739;51.482;5.702;2023-02-11T16:54:05;57.17;;;31.88;;
76786;SDS011;65739;51.482;5.702;2023-02-11T16:56:31;51.15;;;28.27;;
76786;SDS011;65739;51.482;5.702;2023-02-11T16:58:56;71.15;;;39.17;;
76786;SDS011;65739;51.482;5.702;2023-02-11T17:01:22;65.80;;;36.92;;
76786;SDS011;65739;51.482;5.702;2023-02-11T17:03:48;51.85;;;29.80;;
76786;SDS011;65739;51.482;5.702;2023-02-11T17:06:13;52.95;;;28.77;;
76786;SDS011;65739;51.482;5.702;2023-02-11T17:08:39;50.05;;;27.80;;
76786;SDS011;65739;51.482;5.702;2023-02-11T17:11:05;57.30;;;30.15;;
76786;SDS011;65739;51.482;5.702;2023-02-11T17:13:31;55.58;;;28.08;;
76786;SDS011;65739;51.482;5.702;2023-02-11T17:15:57;50.97;;;28.52;;
76786;SDS011;65739;51.482;5.702;2023-02-11T17:18:22;52.72;;;30.75;;
76786;SDS011;65739;51.482;5.702;2023-02-11T17:20:48;50.75;;;28.65;;
76786;SDS011;65739;51.482;5.702;2023-02-11T17:23:14;53.00;;;27.35;;
76786;SDS011;65739;51.482;5.702;2023-02-11T17:25:39;48.42;;;27.52;;
76786;SDS011;65739;51.482;5.702;2023-02-11T17:28:05;48.25;;;27.85;;
76786;SDS011;65739;51.482;5.702;2023-02-11T17:30:32;48.22;;;27.83;;
76786;SDS011;65739;51.482;5.702;2023-02-11T17:33:00;52.67;;;29.08;;
76786;SDS011;65739;51.482;5.702;2023-02-11T17:35:26;53.38;;;29.65;;
76786;SDS011;65739;51.482;5.702;2023-02-11T17:37:51;53.97;;;29.60;;